sensor_id;sensor_type;location;lat;lon;timestamp;pressure;altitude;pressure_sealevel;temperature;humidity
42847;BME280;28495;49.916;14.536;2023-02-13T00:03:55;98883.66;;;5.31;72.56
42847;BME280;28495;49.916;14.536;2023-02-13T00:09:16;98890.69;;;5.27;72.38
42847;BME280;28495;49.916;14.536;2023-02-13T00:14:38;98891.69;;;5.23;72.34
42847;BME280;28495;49.916;14.536;2023-02-13T00:19:59;98891.81;;;5.20;71.79
42847;BME280;28495;49.916;14.536;2023-02-13T00:25:20;98885.81;;;5.19;72.37
42847;BME280;28495;49.916;14.536;2023-02-13T00:30:41;98885.00;;;5.17;72.11
42847;BME280;28495;49.916;14.536;2023-02-13T00:36:11;98887.44;;;5.22;72.08
42847;BME280;28495;49.916;14.536;2023-02-13T00:41:32;98893.13;;;5.32;72.25
42847;BME280;28495;49.916;14.536;2023-02-13T00:46:53;98885.97;;;5.39;72.20
42847;BME280;28495;49.916;14.536;2023-02-13T00:52:13;98883.28;;;5.42;72.64
42847;BME280;28495;49.916;14.536;2023-02-13T00:57:36;98881.44;;;5.45;72.18
42847;BME280;28495;49.916;14.536;2023-02-13T01:02:57;98880.53;;;5.46;72.09
42847;BME280;28495;49.916;14.536;2023-02-13T01:08:19;98876.94;;;5.51;71.98
42847;BME280;28495;49.916;14.536;2023-02-13T01:13:40;98883.50;;;5.36;71.88
42847;BME280;28495;49.916;14.536;2023-02-13T01:19:00;98875.19;;;5.27;72.14
42847;BME280;28495;49.916;14.536;2023-02-13T01:24:24;98872.09;;;5.16;71.71
42847;BME280;28495;49.916;14.536;2023-02-13T01:29:44;98872.88;;;4.94;71.98
42847;BME280;28495;49.916;14.536;2023-02-13T01:35:06;98869.66;;;4.87;71.82
42847;BME280;28495;49.916;14.536;2023-02-13T01:40:27;98864.50;;;4.87;71.68
42847;BME280;28495;49.916;14.536;2023-02-13T01:45:53;98865.00;;;4.72;72.31
42847;BME280;28495;49.916;14.536;2023-02-13T01:51:19;98864.03;;;4.75;72.26
42847;BME280;28495;49.916;14.536;2023-02-13T01:56:46;98868.97;;;4.82;72.01
42847;BME280;28495;49.916;14.536;2023-02-13T02:02:08;98868.75;;;4.88;72.02
42847;BME280;28495;49.916;14.536;2023-02-13T02:07:29;98875.19;;;4.77;71.90
42847;BME280;28495;49.916;14.536;2023-02-13T02:18:29;98870.69;;;4.56;72.12
42847;BME280;28495;49.916;14.536;2023-02-13T02:35:50;98862.34;;;4.73;72.11
42847;BME280;28495;49.916;14.536;2023-02-13T02:53:16;98852.44;;;4.86;72.64
42847;BME280;28495;49.916;14.536;2023-02-13T02:59:04;98845.06;;;4.76;72.08
42847;BME280;28495;49.916;14.536;2023-02-13T03:04:49;98835.59;;;4.76;71.89
42847;BME280;28495;49.916;14.536;2023-02-13T03:10:32;98835.06;;;4.65;72.14
42847;BME280;28495;49.916;14.536;2023-02-13T03:16:16;98837.56;;;4.68;72.83
42847;BME280;28495;49.916;14.536;2023-02-13T03:22:24;98835.94;;;4.65;72.37
42847;BME280;28495;49.916;14.536;2023-02-13T03:28:16;98839.03;;;4.50;72.47
42847;BME280;28495;49.916;14.536;2023-02-13T03:34:01;98839.78;;;4.53;72.73
42847;BME280;28495;49.916;14.536;2023-02-13T03:39:35;98848.88;;;4.38;72.17
42847;BME280;28495;49.916;14.536;2023-02-13T03:45:26;98838.84;;;4.29;71.45
42847;BME280;28495;49.916;14.536;2023-02-13T03:51:09;98835.03;;;4.14;71.71
42847;BME280;28495;49.916;14.536;2023-02-13T03:56:32;98833.09;;;4.21;72.22
42847;BME280;28495;49.916;14.536;2023-02-13T04:02:16;98826.00;;;4.26;72.33
42847;BME280;28495;49.916;14.536;2023-02-13T04:07:40;98835.28;;;4.32;72.90
42847;BME280;28495;49.916;14.536;2023-02-13T04:13:17;98834.38;;;4.34;72.16
42847;BME280;28495;49.916;14.536;2023-02-13T04:18:40;98823.94;;;4.37;72.38
42847;BME280;28495;49.916;14.536;2023-02-13T04:24:03;98831.56;;;4.40;72.53
42847;BME280;28495;49.916;14.536;2023-02-13T04:29:25;98834.84;;;4.46;72.11
42847;BME280;28495;49.916;14.536;2023-02-13T04:34:46;98831.63;;;4.39;72.58
42847;BME280;28495;49.916;14.536;2023-02-13T04:40:08;98828.25;;;4.37;72.59
42847;BME280;28495;49.916;14.536;2023-02-13T04:45:29;98841.06;;;4.40;72.91
42847;BME280;28495;49.916;14.536;2023-02-13T04:50:49;98845.84;;;4.52;72.73
42847;BME280;28495;49.916;14.536;2023-02-13T04:56:10;98840.09;;;4.44;72.36
42847;BME280;28495;49.916;14.536;2023-02-13T05:01:31;98835.19;;;4.35;72.17
42847;BME280;28495;49.916;14.536;2023-02-13T05:06:51;98837.69;;;4.38;72.64
42847;BME280;28495;49.916;14.536;2023-02-13T05:12:12;98833.47;;;4.35;72.16
42847;BME280;28495;49.916;14.536;2023-02-13T05:17:33;98831.94;;;4.30;72.42
42847;BME280;28495;49.916;14.536;2023-02-13T05:22:54;98829.25;;;4.33;73.16
42847;BME280;28495;49.916;14.536;2023-02-13T05:28:33;98837.53;;;4.42;73.11
42847;BME280;28495;49.916;14.536;2023-02-13T05:34:12;98836.63;;;4.43;72.92
42847;BME280;28495;49.916;14.536;2023-02-13T05:39:33;98839.06;;;4.48;72.99
42847;BME280;28495;49.916;14.536;2023-02-13T05:44:54;98850.66;;;4.36;72.46
42847;BME280;28495;49.916;14.536;2023-02-13T05:50:15;98843.41;;;4.48;73.24
42847;BME280;28495;49.916;14.536;2023-02-13T05:55:35;98837.44;;;4.46;72.91
42847;BME280;28495;49.916;14.536;2023-02-13T06:00:58;98828.47;;;4.31;72.86
42847;BME280;28495;49.916;14.536;2023-02-13T06:06:20;98841.00;;;4.41;73.37
42847;BME280;28495;49.916;14.536;2023-02-13T06:11:42;98841.13;;;4.38;72.78
42847;BME280;28495;49.916;14.536;2023-02-13T06:17:03;98848.03;;;4.38;72.57
42847;BME280;28495;49.916;14.536;2023-02-13T06:22:23;98842.78;;;4.39;73.13
42847;BME280;28495;49.916;14.536;2023-02-13T06:27:45;98847.97;;;4.39;73.45
42847;BME280;28495;49.916;14.536;2023-02-13T06:33:06;98853.84;;;4.45;73.04
42847;BME280;28495;49.916;14.536;2023-02-13T06:38:27;98852.63;;;4.55;73.11
42847;BME280;28495;49.916;14.536;2023-02-13T06:43:48;98855.81;;;4.63;73.56
42847;BME280;28495;49.916;14.536;2023-02-13T06:49:08;98859.19;;;4.65;73.53
42847;BME280;28495;49.916;14.536;2023-02-13T06:54:30;98863.66;;;4.60;72.63
42847;BME280;28495;49.916;14.536;2023-02-13T07:00:07;98865.28;;;4.63;72.53
42847;BME280;28495;49.916;14.536;2023-02-13T07:05:28;98857.75;;;4.56;72.96
42847;BME280;28495;49.916;14.536;2023-02-13T07:10:49;98862.59;;;4.67;73.36
42847;BME280;28495;49.916;14.536;2023-02-13T07:16:10;98858.44;;;4.62;72.90
42847;BME280;28495;49.916;14.536;2023-02-13T07:21:31;98870.63;;;4.58;73.04
42847;BME280;28495;49.916;14.536;2023-02-13T07:26:51;98878.84;;;4.69;73.00
42847;BME280;28495;49.916;14.536;2023-02-13T07:32:12;98878.09;;;4.67;73.14
42847;BME280;28495;49.916;14.536;2023-02-13T07:37:33;98879.81;;;4.67;73.20
42847;BME280;28495;49.916;14.536;2023-02-13T07:42:54;98883.66;;;4.80;73.19
42847;BME280;28495;49.916;14.536;2023-02-13T07:48:15;98884.94;;;4.94;73.27
42847;BME280;28495;49.916;14.536;2023-02-13T07:53:36;98882.94;;;5.02;73.63
42847;BME280;28495;49.916;14.536;2023-02-13T07:58:57;98868.34;;;5.01;73.56
42847;BME280;28495;49.916;14.536;2023-02-13T08:04:17;98872.28;;;4.86;72.92
42847;BME280;28495;49.916;14.536;2023-02-13T08:09:38;98862.41;;;4.72;72.90
42847;BME280;28495;49.916;14.536;2023-02-13T08:15:18;98866.88;;;4.67;73.19
42847;BME280;28495;49.916;14.536;2023-02-13T08:20:39;98875.25;;;4.75;73.10
42847;BME280;28495;49.916;14.536;2023-02-13T08:26:00;98866.13;;;4.90;73.55
42847;BME280;28495;49.916;14.536;2023-02-13T08:31:21;98868.22;;;5.04;74.01
42847;BME280;28495;49.916;14.536;2023-02-13T08:36:42;98871.13;;;4.95;72.85
42847;BME280;28495;49.916;14.536;2023-02-13T08:42:03;98872.03;;;4.68;72.44
42847;BME280;28495;49.916;14.536;2023-02-13T08:47:24;98872.94;;;4.66;73.01
42847;BME280;28495;49.916;14.536;2023-02-13T08:52:45;98873.59;;;4.72;72.83
42847;BME280;28495;49.916;14.536;2023-02-13T08:58:05;98883.50;;;4.60;72.41
42847;BME280;28495;49.916;14.536;2023-02-13T09:03:26;98883.75;;;4.52;72.57
42847;BME280;28495;49.916;14.536;2023-02-13T09:08:47;98881.81;;;4.58;73.02
42847;BME280;28495;49.916;14.536;2023-02-13T09:14:07;98883.78;;;4.77;73.21
42847;BME280;28495;49.916;14.536;2023-02-13T09:19:28;98885.81;;;5.19;74.34
42847;BME280;28495;49.916;14.536;2023-02-13T09:24:49;98880.84;;;5.37;73.79
42847;BME280;28495;49.916;14.536;2023-02-13T09:30:10;98887.25;;;5.27;72.68
42847;BME280;28495;49.916;14.536;2023-02-13T09:35:32;98885.16;;;5.13;72.79
42847;BME280;28495;49.916;14.536;2023-02-13T09:40:56;98880.25;;;5.05;72.64
42847;BME280;28495;49.916;14.536;2023-02-13T09:46:23;98885.44;;;5.05;72.85
42847;BME280;28495;49.916;14.536;2023-02-13T09:51:50;98889.72;;;5.06;72.86
42847;BME280;28495;49.916;14.536;2023-02-13T10:02:50;98888.94;;;5.28;73.01
42847;BME280;28495;49.916;14.536;2023-02-13T10:30:57;98897.88;;;5.90;72.40
42847;BME280;28495;49.916;14.536;2023-02-13T10:36:30;98889.81;;;6.00;72.17
42847;BME280;28495;49.916;14.536;2023-02-13T10:41:54;98884.22;;;6.10;72.17
42847;BME280;28495;49.916;14.536;2023-02-13T11:04:24;98871.97;;;6.14;71.05
42847;BME280;28495;49.916;14.536;2023-02-13T11:09:47;98869.09;;;6.22;71.04
42847;BME280;28495;49.916;14.536;2023-02-13T11:20:41;98869.75;;;6.27;70.84
42847;BME280;28495;49.916;14.536;2023-02-13T11:26:30;98867.50;;;6.40;70.81
42847;BME280;28495;49.916;14.536;2023-02-13T11:37:36;98858.81;;;7.63;72.19
42847;BME280;28495;49.916;14.536;2023-02-13T11:42:57;98859.84;;;7.40;70.25
42847;BME280;28495;49.916;14.536;2023-02-13T11:48:21;98857.41;;;7.16;69.65
42847;BME280;28495;49.916;14.536;2023-02-13T11:53:42;98864.25;;;6.98;69.49
42847;BME280;28495;49.916;14.536;2023-02-13T11:59:03;98860.16;;;6.93;69.26
42847;BME280;28495;49.916;14.536;2023-02-13T12:04:24;98856.34;;;6.81;69.13
42847;BME280;28495;49.916;14.536;2023-02-13T12:09:53;98862.88;;;6.69;69.05
42847;BME280;28495;49.916;14.536;2023-02-13T12:15:18;98856.78;;;6.70;68.95
42847;BME280;28495;49.916;14.536;2023-02-13T12:21:03;98846.59;;;6.65;68.79
42847;BME280;28495;49.916;14.536;2023-02-13T12:26:30;98833.44;;;6.70;68.83
42847;BME280;28495;49.916;14.536;2023-02-13T12:32:18;98825.97;;;6.62;68.43
42847;BME280;28495;49.916;14.536;2023-02-13T12:38:11;98820.75;;;6.64;68.65
42847;BME280;28495;49.916;14.536;2023-02-13T12:55:37;98795.44;;;6.69;68.42
42847;BME280;28495;49.916;14.536;2023-02-13T13:06:31;98787.13;;;6.81;68.06
42847;BME280;28495;49.916;14.536;2023-02-13T13:17:40;98790.03;;;6.94;67.94
42847;BME280;28495;49.916;14.536;2023-02-13T13:23:09;98782.34;;;6.93;67.74
42847;BME280;28495;49.916;14.536;2023-02-13T13:28:35;98781.81;;;7.05;67.36
42847;BME280;28495;49.916;14.536;2023-02-13T13:34:00;98791.41;;;7.03;67.28
42847;BME280;28495;49.916;14.536;2023-02-13T13:39:39;98781.22;;;6.98;67.11
42847;BME280;28495;49.916;14.536;2023-02-13T13:45:29;98770.44;;;7.08;67.20
42847;BME280;28495;49.916;14.536;2023-02-13T13:50:55;98774.78;;;7.07;66.88
42847;BME280;28495;49.916;14.536;2023-02-13T13:56:16;98768.75;;;7.07;66.89
42847;BME280;28495;49.916;14.536;2023-02-13T14:01:37;98770.66;;;7.03;66.57
42847;BME280;28495;49.916;14.536;2023-02-13T14:17:50;98780.94;;;7.05;66.75
42847;BME280;28495;49.916;14.536;2023-02-13T14:39:34;98784.38;;;6.86;66.16
42847;BME280;28495;49.916;14.536;2023-02-13T14:44:58;98782.16;;;6.77;66.28
42847;BME280;28495;49.916;14.536;2023-02-13T14:50:23;98777.69;;;6.80;67.25
42847;BME280;28495;49.916;14.536;2023-02-13T14:55:49;98784.47;;;7.23;66.79
42847;BME280;28495;49.916;14.536;2023-02-13T15:06:45;98774.47;;;6.94;66.31
42847;BME280;28495;49.916;14.536;2023-02-13T15:12:30;98767.38;;;6.79;65.88
42847;BME280;28495;49.916;14.536;2023-02-13T15:17:58;98758.38;;;6.67;66.29
42847;BME280;28495;49.916;14.536;2023-02-13T15:23:25;98761.88;;;6.66;66.29
42847;BME280;28495;49.916;14.536;2023-02-13T15:29:18;98754.16;;;6.64;66.34
42847;BME280;28495;49.916;14.536;2023-02-13T15:34:52;98753.59;;;6.58;65.96
42847;BME280;28495;49.916;14.536;2023-02-13T15:40:35;98763.19;;;6.55;66.08
42847;BME280;28495;49.916;14.536;2023-02-13T15:45:59;98762.84;;;6.63;66.92
42847;BME280;28495;49.916;14.536;2023-02-13T15:51:27;98749.97;;;6.62;66.04
42847;BME280;28495;49.916;14.536;2023-02-13T15:56:50;98739.16;;;6.52;66.26
42847;BME280;28495;49.916;14.536;2023-02-13T16:02:42;98738.44;;;6.48;66.05
42847;BME280;28495;49.916;14.536;2023-02-13T16:08:29;98742.72;;;6.49;66.22
42847;BME280;28495;49.916;14.536;2023-02-13T16:25:26;98739.41;;;6.85;66.29
42847;BME280;28495;49.916;14.536;2023-02-13T16:30:52;98733.56;;;6.61;65.94
42847;BME280;28495;49.916;14.536;2023-02-13T16:36:25;98729.91;;;6.46;66.01
42847;BME280;28495;49.916;14.536;2023-02-13T16:41:47;98734.69;;;6.35;66.15
42847;BME280;28495;49.916;14.536;2023-02-13T16:47:19;98742.59;;;6.32;66.00
42847;BME280;28495;49.916;14.536;2023-02-13T16:52:41;98752.56;;;6.41;66.24
42847;BME280;28495;49.916;14.536;2023-02-13T16:58:03;98744.19;;;6.34;65.95
42847;BME280;28495;49.916;14.536;2023-02-13T17:03:24;98754.69;;;6.31;66.11
42847;BME280;28495;49.916;14.536;2023-02-13T17:08:45;98753.47;;;6.19;65.98
42847;BME280;28495;49.916;14.536;2023-02-13T17:14:06;98759.88;;;6.10;66.04
42847;BME280;28495;49.916;14.536;2023-02-13T17:19:27;98747.94;;;6.06;65.88
42847;BME280;28495;49.916;14.536;2023-02-13T17:24:50;98740.97;;;5.86;65.58
42847;BME280;28495;49.916;14.536;2023-02-13T17:30:20;98738.13;;;5.70;65.76
42847;BME280;28495;49.916;14.536;2023-02-13T17:35:41;98735.31;;;5.54;65.73
42847;BME280;28495;49.916;14.536;2023-02-13T17:41:01;98740.91;;;5.43;65.75
42847;BME280;28495;49.916;14.536;2023-02-13T17:46:22;98727.53;;;5.32;65.87
42847;BME280;28495;49.916;14.536;2023-02-13T17:51:43;98734.44;;;5.54;68.84
42847;BME280;28495;49.916;14.536;2023-02-13T17:57:05;98739.69;;;5.74;66.26
42847;BME280;28495;49.916;14.536;2023-02-13T18:02:26;98736.75;;;5.61;66.21
42847;BME280;28495;49.916;14.536;2023-02-13T18:07:47;98738.13;;;5.48;65.91
42847;BME280;28495;49.916;14.536;2023-02-13T18:13:08;98740.28;;;5.37;66.17
42847;BME280;28495;49.916;14.536;2023-02-13T18:18:29;98742.19;;;5.31;66.29
42847;BME280;28495;49.916;14.536;2023-02-13T18:23:51;98748.28;;;5.30;65.86
42847;BME280;28495;49.916;14.536;2023-02-13T18:29:13;98740.97;;;5.18;65.87
42847;BME280;28495;49.916;14.536;2023-02-13T18:34:35;98742.75;;;5.17;66.13
42847;BME280;28495;49.916;14.536;2023-02-13T18:39:57;98747.16;;;5.38;67.78
42847;BME280;28495;49.916;14.536;2023-02-13T18:45:18;98733.81;;;5.71;66.82
42847;BME280;28495;49.916;14.536;2023-02-13T18:50:40;98733.06;;;5.45;66.19
42847;BME280;28495;49.916;14.536;2023-02-13T18:56:04;98731.44;;;5.64;66.96
42847;BME280;28495;49.916;14.536;2023-02-13T19:01:25;98734.50;;;5.30;65.99
42847;BME280;28495;49.916;14.536;2023-02-13T19:06:46;98733.78;;;5.02;65.50
42847;BME280;28495;49.916;14.536;2023-02-13T19:12:07;98714.72;;;4.83;65.70
42847;BME280;28495;49.916;14.536;2023-02-13T19:17:28;98718.88;;;4.62;65.62
42847;BME280;28495;49.916;14.536;2023-02-13T19:22:48;98713.34;;;4.47;65.81
42847;BME280;28495;49.916;14.536;2023-02-13T19:28:09;98704.22;;;4.38;66.40
42847;BME280;28495;49.916;14.536;2023-02-13T19:33:30;98694.78;;;4.37;66.55
42847;BME280;28495;49.916;14.536;2023-02-13T19:38:56;98695.09;;;4.28;66.20
42847;BME280;28495;49.916;14.536;2023-02-13T19:44:18;98721.97;;;4.22;65.91
42847;BME280;28495;49.916;14.536;2023-02-13T19:49:38;98720.25;;;4.23;66.15
42847;BME280;28495;49.916;14.536;2023-02-13T19:54:59;98714.94;;;4.26;66.33
42847;BME280;28495;49.916;14.536;2023-02-13T20:00:22;98717.50;;;4.27;66.60
42847;BME280;28495;49.916;14.536;2023-02-13T20:05:44;98700.56;;;4.19;66.06
42847;BME280;28495;49.916;14.536;2023-02-13T20:11:11;98710.38;;;4.09;65.91
42847;BME280;28495;49.916;14.536;2023-02-13T20:16:32;98701.97;;;4.02;66.05
42847;BME280;28495;49.916;14.536;2023-02-13T20:21:55;98706.25;;;4.03;66.34
42847;BME280;28495;49.916;14.536;2023-02-13T20:27:16;98695.97;;;4.02;66.76
42847;BME280;28495;49.916;14.536;2023-02-13T20:32:36;98698.78;;;3.95;66.23
42847;BME280;28495;49.916;14.536;2023-02-13T20:37:58;98707.81;;;3.82;66.27
42847;BME280;28495;49.916;14.536;2023-02-13T20:43:19;98696.84;;;3.75;66.25
42847;BME280;28495;49.916;14.536;2023-02-13T20:48:42;98701.88;;;3.78;66.52
42847;BME280;28495;49.916;14.536;2023-02-13T20:54:03;98692.31;;;3.82;67.13
42847;BME280;28495;49.916;14.536;2023-02-13T20:59:24;98698.78;;;3.69;66.40
42847;BME280;28495;49.916;14.536;2023-02-13T21:04:45;98703.19;;;3.65;66.83
42847;BME280;28495;49.916;14.536;2023-02-13T21:10:07;98712.41;;;3.72;67.08
42847;BME280;28495;49.916;14.536;2023-02-13T21:15:28;98697.91;;;3.68;66.80
42847;BME280;28495;49.916;14.536;2023-02-13T21:20:50;98698.97;;;3.62;66.49
42847;BME280;28495;49.916;14.536;2023-02-13T21:26:15;98702.69;;;3.54;66.65
42847;BME280;28495;49.916;14.536;2023-02-13T21:31:40;98711.59;;;3.43;66.52
42847;BME280;28495;49.916;14.536;2023-02-13T21:37:04;98717.88;;;3.34;66.32
42847;BME280;28495;49.916;14.536;2023-02-13T21:42:24;98708.63;;;3.27;66.88
42847;BME280;28495;49.916;14.536;2023-02-13T21:47:45;98695.97;;;3.19;66.16
42847;BME280;28495;49.916;14.536;2023-02-13T21:53:07;98702.66;;;3.27;66.85
42847;BME280;28495;49.916;14.536;2023-02-13T21:58:31;98722.19;;;3.05;65.60
42847;BME280;28495;49.916;14.536;2023-02-13T22:03:54;98722.75;;;2.85;66.82
42847;BME280;28495;49.916;14.536;2023-02-13T22:09:21;98720.41;;;2.78;66.84
42847;BME280;28495;49.916;14.536;2023-02-13T22:14:42;98729.94;;;2.74;65.96
42847;BME280;28495;49.916;14.536;2023-02-13T22:20:03;98733.59;;;2.65;66.39
42847;BME280;28495;49.916;14.536;2023-02-13T22:25:24;98732.25;;;2.83;67.34
42847;BME280;28495;49.916;14.536;2023-02-13T22:30:44;98729.91;;;2.76;66.64
42847;BME280;28495;49.916;14.536;2023-02-13T22:36:05;98749.16;;;2.62;66.30
42847;BME280;28495;49.916;14.536;2023-02-13T22:41:26;98758.44;;;2.35;66.49
42847;BME280;28495;49.916;14.536;2023-02-13T22:46:47;98762.03;;;2.29;66.19
42847;BME280;28495;49.916;14.536;2023-02-13T22:52:08;98758.69;;;2.25;66.37
42847;BME280;28495;49.916;14.536;2023-02-13T22:57:30;98762.78;;;2.34;66.66
42847;BME280;28495;49.916;14.536;2023-02-13T23:02:51;98765.97;;;2.42;66.65
42847;BME280;28495;49.916;14.536;2023-02-13T23:08:12;98755.47;;;2.50;66.96
42847;BME280;28495;49.916;14.536;2023-02-13T23:13:33;98766.66;;;2.49;66.88
42847;BME280;28495;49.916;14.536;2023-02-13T23:18:55;98784.75;;;2.46;67.00
42847;BME280;28495;49.916;14.536;2023-02-13T23:24:16;98791.47;;;2.52;66.94
42847;BME280;28495;49.916;14.536;2023-02-13T23:29:37;98792.41;;;2.49;67.34
42847;BME280;28495;49.916;14.536;2023-02-13T23:34:58;98805.16;;;2.54;67.45
42847;BME280;28495;49.916;14.536;2023-02-13T23:40:19;98804.91;;;2.65;67.89
42847;BME280;28495;49.916;14.536;2023-02-13T23:45:40;98806.44;;;2.72;67.54
42847;BME280;28495;49.916;14.536;2023-02-13T23:51:01;98805.66;;;2.68;67.79
42847;BME280;28495;49.916;14.536;2023-02-13T23:56:23;98798.78;;;2.69;67.37
